sensor_id;sensor_type;location;lat;lon;timestamp;pressure;altitude;pressure_sealevel;temperature;humidity
74868;BME280;63419;42.262;12.210;2022-10-13T00:01:23;97885.44;;;19.46;100.00
74868;BME280;63419;42.262;12.210;2022-10-13T00:03:52;97883.97;;;18.96;100.00
74868;BME280;63419;42.262;12.210;2022-10-13T00:06:25;97899.84;;;18.16;100.00
74868;BME280;63419;42.262;12.210;2022-10-13T00:08:55;97904.97;;;17.67;100.00
74868;BME280;63419;42.262;12.210;2022-10-13T00:11:26;97909.50;;;17.75;100.00
74868;BME280;63419;42.262;12.210;2022-10-13T00:13:59;97900.44;;;17.60;100.00
74868;BME280;63419;42.262;12.210;2022-10-13T00:16:28;97899.31;;;17.62;100.00
74868;BME280;63419;42.262;12.210;2022-10-13T00:18:56;97887.34;;;18.30;100.00
74868;BME280;63419;42.262;12.210;2022-10-13T00:21:27;97874.25;;;18.59;100.00
74868;BME280;63419;42.262;12.210;2022-10-13T00:23:57;97873.25;;;18.89;100.00
74868;BME280;63419;42.262;12.210;2022-10-13T00:26:26;97867.13;;;18.32;100.00
74868;BME280;63419;42.262;12.210;2022-10-13T00:28:55;97865.75;;;19.14;100.00
74868;BME280;63419;42.262;12.210;2022-10-13T00:31:28;97864.56;;;19.36;100.00
74868;BME280;63419;42.262;12.210;2022-10-13T00:33:58;97862.75;;;19.64;100.00
74868;BME280;63419;42.262;12.210;2022-10-13T00:36:27;97866.78;;;19.31;100.00
74868;BME280;63419;42.262;12.210;2022-10-13T00:38:57;97871.38;;;18.72;100.00
74868;BME280;63419;42.262;12.210;2022-10-13T00:41:28;97883.59;;;17.33;100.00
74868;BME280;63419;42.262;12.210;2022-10-13T00:44:04;97892.28;;;17.43;100.00
74868;BME280;63419;42.262;12.210;2022-10-13T00:46:34;97888.19;;;18.20;100.00
74868;BME280;63419;42.262;12.210;2022-10-13T00:49:13;97876.63;;;18.42;100.00
74868;BME280;63419;42.262;12.210;2022-10-13T00:51:46;97871.25;;;19.11;100.00
74868;BME280;63419;42.262;12.210;2022-10-13T00:54:19;97869.34;;;19.40;100.00
74868;BME280;63419;42.262;12.210;2022-10-13T00:56:52;97870.16;;;19.13;100.00
74868;BME280;63419;42.262;12.210;2022-10-13T00:59:27;97871.25;;;19.11;100.00
74868;BME280;63419;42.262;12.210;2022-10-13T01:01:59;97862.75;;;19.09;100.00
74868;BME280;63419;42.262;12.210;2022-10-13T01:04:33;97858.25;;;19.56;100.00
74868;BME280;63419;42.262;12.210;2022-10-13T01:07:05;97851.03;;;19.68;100.00
74868;BME280;63419;42.262;12.210;2022-10-13T01:09:33;97851.75;;;19.05;100.00
74868;BME280;63419;42.262;12.210;2022-10-13T01:21:26;97848.31;;;19.05;100.00
74868;BME280;63419;42.262;12.210;2022-10-13T01:36:14;97823.56;;;19.82;100.00
74868;BME280;63419;42.262;12.210;2022-10-13T01:39:07;97814.94;;;20.08;100.00
74868;BME280;63419;42.262;12.210;2022-10-13T01:42:00;97807.59;;;20.11;100.00
74868;BME280;63419;42.262;12.210;2022-10-13T01:44:40;97820.81;;;19.28;100.00
74868;BME280;63419;42.262;12.210;2022-10-13T01:47:11;97822.91;;;19.43;100.00
74868;BME280;63419;42.262;12.210;2022-10-13T01:49:45;97813.38;;;19.51;100.00
74868;BME280;63419;42.262;12.210;2022-10-13T01:52:16;97799.38;;;19.88;100.00
74868;BME280;63419;42.262;12.210;2022-10-13T01:55:10;97794.75;;;20.00;100.00
74868;BME280;63419;42.262;12.210;2022-10-13T01:57:41;97792.25;;;19.99;100.00
74868;BME280;63419;42.262;12.210;2022-10-13T02:00:17;97796.59;;;20.08;100.00
74868;BME280;63419;42.262;12.210;2022-10-13T02:06:04;97799.53;;;18.76;100.00
74868;BME280;63419;42.262;12.210;2022-10-13T02:08:44;97806.53;;;18.38;100.00
74868;BME280;63419;42.262;12.210;2022-10-13T02:11:18;97816.84;;;18.30;100.00
74868;BME280;63419;42.262;12.210;2022-10-13T02:16:49;97800.28;;;19.06;100.00
74868;BME280;63419;42.262;12.210;2022-10-13T02:19:19;97800.91;;;19.17;100.00
74868;BME280;63419;42.262;12.210;2022-10-13T02:22:28;97786.28;;;19.43;100.00
74868;BME280;63419;42.262;12.210;2022-10-13T02:25:01;97800.00;;;18.61;100.00
74868;BME280;63419;42.262;12.210;2022-10-13T02:27:29;97797.84;;;18.47;100.00
74868;BME280;63419;42.262;12.210;2022-10-13T02:29:57;97796.91;;;18.09;100.00
74868;BME280;63419;42.262;12.210;2022-10-13T02:32:24;97789.31;;;18.35;100.00
74868;BME280;63419;42.262;12.210;2022-10-13T02:34:51;97785.38;;;18.69;100.00
74868;BME280;63419;42.262;12.210;2022-10-13T02:37:20;97774.78;;;19.35;100.00
74868;BME280;63419;42.262;12.210;2022-10-13T02:39:49;97767.28;;;19.23;100.00
74868;BME280;63419;42.262;12.210;2022-10-13T02:42:16;97783.84;;;18.09;100.00
74868;BME280;63419;42.262;12.210;2022-10-13T02:44:45;97800.31;;;17.80;100.00
74868;BME280;63419;42.262;12.210;2022-10-13T02:47:12;97792.06;;;18.43;100.00
74868;BME280;63419;42.262;12.210;2022-10-13T02:49:39;97789.81;;;18.58;100.00
74868;BME280;63419;42.262;12.210;2022-10-13T02:52:09;97776.22;;;19.02;100.00
74868;BME280;63419;42.262;12.210;2022-10-13T02:54:39;97773.13;;;18.79;100.00
74868;BME280;63419;42.262;12.210;2022-10-13T02:57:06;97774.16;;;18.96;100.00
74868;BME280;63419;42.262;12.210;2022-10-13T02:59:33;97766.06;;;19.17;100.00
74868;BME280;63419;42.262;12.210;2022-10-13T03:02:00;97766.81;;;18.72;100.00
74868;BME280;63419;42.262;12.210;2022-10-13T03:04:28;97763.94;;;18.65;100.00
74868;BME280;63419;42.262;12.210;2022-10-13T03:06:55;97776.28;;;18.16;100.00
74868;BME280;63419;42.262;12.210;2022-10-13T03:09:23;97771.25;;;18.61;100.00
74868;BME280;63419;42.262;12.210;2022-10-13T03:11:50;97768.06;;;19.05;100.00
74868;BME280;63419;42.262;12.210;2022-10-13T03:14:20;97771.63;;;18.29;100.00
74868;BME280;63419;42.262;12.210;2022-10-13T03:16:48;97777.97;;;17.08;100.00
74868;BME280;63419;42.262;12.210;2022-10-13T03:19:18;97773.75;;;17.17;100.00
74868;BME280;63419;42.262;12.210;2022-10-13T03:21:45;97770.25;;;17.76;100.00
74868;BME280;63419;42.262;12.210;2022-10-13T03:24:14;97762.13;;;18.28;100.00
74868;BME280;63419;42.262;12.210;2022-10-13T03:26:41;97768.84;;;17.43;100.00
74868;BME280;63419;42.262;12.210;2022-10-13T03:29:17;97755.94;;;18.29;100.00
74868;BME280;63419;42.262;12.210;2022-10-13T03:31:47;97750.59;;;18.68;100.00
74868;BME280;63419;42.262;12.210;2022-10-13T03:34:21;97748.13;;;18.67;100.00
74868;BME280;63419;42.262;12.210;2022-10-13T03:36:48;97741.38;;;19.01;100.00
74868;BME280;63419;42.262;12.210;2022-10-13T03:39:16;97741.22;;;19.03;100.00
74868;BME280;63419;42.262;12.210;2022-10-13T03:41:44;97741.19;;;18.85;100.00
74868;BME280;63419;42.262;12.210;2022-10-13T03:44:12;97740.13;;;19.06;100.00
74868;BME280;63419;42.262;12.210;2022-10-13T03:46:42;97734.03;;;19.15;100.00
74868;BME280;63419;42.262;12.210;2022-10-13T03:49:11;97744.66;;;19.03;100.00
74868;BME280;63419;42.262;12.210;2022-10-13T03:51:39;97753.44;;;17.30;100.00
74868;BME280;63419;42.262;12.210;2022-10-13T03:54:08;97766.97;;;16.22;100.00
74868;BME280;63419;42.262;12.210;2022-10-13T03:56:37;97751.31;;;16.73;100.00
74868;BME280;63419;42.262;12.210;2022-10-13T03:59:06;97754.03;;;16.93;100.00
74868;BME280;63419;42.262;12.210;2022-10-13T04:01:42;97749.09;;;17.60;100.00
74868;BME280;63419;42.262;12.210;2022-10-13T04:04:12;97740.31;;;18.00;100.00
74868;BME280;63419;42.262;12.210;2022-10-13T04:06:41;97741.63;;;18.23;100.00
74868;BME280;63419;42.262;12.210;2022-10-13T04:09:08;97739.38;;;18.48;100.00
74868;BME280;63419;42.262;12.210;2022-10-13T04:11:35;97753.59;;;17.38;100.00
74868;BME280;63419;42.262;12.210;2022-10-13T04:14:03;97746.72;;;17.37;100.00
74868;BME280;63419;42.262;12.210;2022-10-13T04:16:31;97745.50;;;17.41;100.00
74868;BME280;63419;42.262;12.210;2022-10-13T04:19:03;97744.22;;;17.16;100.00
74868;BME280;63419;42.262;12.210;2022-10-13T04:21:33;97746.19;;;17.63;100.00
74868;BME280;63419;42.262;12.210;2022-10-13T04:24:02;97737.41;;;17.93;100.00
74868;BME280;63419;42.262;12.210;2022-10-13T04:26:33;97733.44;;;18.08;100.00
74868;BME280;63419;42.262;12.210;2022-10-13T04:29:04;97728.38;;;17.87;100.00
74868;BME280;63419;42.262;12.210;2022-10-13T04:31:37;97733.69;;;18.15;100.00
74868;BME280;63419;42.262;12.210;2022-10-13T04:34:04;97731.66;;;17.89;100.00
74868;BME280;63419;42.262;12.210;2022-10-13T04:36:36;97734.53;;;17.67;100.00
74868;BME280;63419;42.262;12.210;2022-10-13T04:39:07;97740.03;;;18.03;100.00
74868;BME280;63419;42.262;12.210;2022-10-13T04:41:34;97738.38;;;18.02;100.00
74868;BME280;63419;42.262;12.210;2022-10-13T04:44:04;97730.41;;;18.13;100.00
74868;BME280;63419;42.262;12.210;2022-10-13T04:46:34;97734.50;;;16.78;100.00
74868;BME280;63419;42.262;12.210;2022-10-13T04:49:05;97736.00;;;16.80;100.00
74868;BME280;63419;42.262;12.210;2022-10-13T04:51:33;97734.41;;;16.58;100.00
74868;BME280;63419;42.262;12.210;2022-10-13T04:54:01;97729.03;;;16.50;100.00
74868;BME280;63419;42.262;12.210;2022-10-13T04:56:30;97726.53;;;16.48;100.00
74868;BME280;63419;42.262;12.210;2022-10-13T04:58:58;97728.09;;;16.61;100.00
74868;BME280;63419;42.262;12.210;2022-10-13T05:01:27;97714.47;;;17.19;100.00
74868;BME280;63419;42.262;12.210;2022-10-13T05:04:00;97716.81;;;17.41;100.00
74868;BME280;63419;42.262;12.210;2022-10-13T05:06:35;97715.03;;;17.71;100.00
74868;BME280;63419;42.262;12.210;2022-10-13T05:09:23;97715.72;;;17.83;100.00
74868;BME280;63419;42.262;12.210;2022-10-13T05:11:53;97705.78;;;18.16;100.00
74868;BME280;63419;42.262;12.210;2022-10-13T05:14:22;97707.88;;;18.87;100.00
74868;BME280;63419;42.262;12.210;2022-10-13T05:16:50;97711.88;;;17.38;100.00
74868;BME280;63419;42.262;12.210;2022-10-13T05:19:18;97712.66;;;17.09;100.00
74868;BME280;63419;42.262;12.210;2022-10-13T05:21:51;97714.19;;;17.61;100.00
74868;BME280;63419;42.262;12.210;2022-10-13T05:24:24;97707.53;;;18.35;100.00
74868;BME280;63419;42.262;12.210;2022-10-13T05:27:12;97705.25;;;18.59;100.00
74868;BME280;63419;42.262;12.210;2022-10-13T05:29:43;97704.31;;;18.88;100.00
74868;BME280;63419;42.262;12.210;2022-10-13T05:32:17;97700.75;;;18.79;100.00
74868;BME280;63419;42.262;12.210;2022-10-13T05:34:47;97711.66;;;19.02;100.00
74868;BME280;63419;42.262;12.210;2022-10-13T05:37:15;97710.38;;;19.07;100.00
74868;BME280;63419;42.262;12.210;2022-10-13T05:39:44;97704.38;;;18.96;100.00
74868;BME280;63419;42.262;12.210;2022-10-13T05:42:14;97712.19;;;19.06;100.00
74868;BME280;63419;42.262;12.210;2022-10-13T05:44:42;97712.28;;;19.32;100.00
74868;BME280;63419;42.262;12.210;2022-10-13T05:47:09;97714.44;;;19.19;100.00
74868;BME280;63419;42.262;12.210;2022-10-13T05:49:36;97723.16;;;19.10;100.00
74868;BME280;63419;42.262;12.210;2022-10-13T05:52:09;97726.91;;;18.70;100.00
74868;BME280;63419;42.262;12.210;2022-10-13T05:54:44;97728.03;;;18.67;100.00
74868;BME280;63419;42.262;12.210;2022-10-13T05:57:30;97732.97;;;18.33;100.00
74868;BME280;63419;42.262;12.210;2022-10-13T06:00:07;97741.69;;;17.65;100.00
74868;BME280;63419;42.262;12.210;2022-10-13T06:02:44;97743.06;;;18.08;100.00
74868;BME280;63419;42.262;12.210;2022-10-13T06:05:20;97729.22;;;18.45;100.00
74868;BME280;63419;42.262;12.210;2022-10-13T06:07:50;97733.69;;;18.05;100.00
74868;BME280;63419;42.262;12.210;2022-10-13T06:10:23;97734.75;;;18.32;100.00
74868;BME280;63419;42.262;12.210;2022-10-13T06:12:50;97731.59;;;18.66;100.00
74868;BME280;63419;42.262;12.210;2022-10-13T06:15:22;97739.22;;;18.59;100.00
74868;BME280;63419;42.262;12.210;2022-10-13T06:17:54;97739.88;;;18.99;100.00
74868;BME280;63419;42.262;12.210;2022-10-13T06:20:24;97744.09;;;19.10;100.00
74868;BME280;63419;42.262;12.210;2022-10-13T06:22:56;97748.81;;;18.96;100.00
74868;BME280;63419;42.262;12.210;2022-10-13T06:25:25;97752.44;;;18.95;100.00
74868;BME280;63419;42.262;12.210;2022-10-13T06:27:52;97748.13;;;18.67;100.00
74868;BME280;63419;42.262;12.210;2022-10-13T06:30:19;97757.59;;;18.20;100.00
74868;BME280;63419;42.262;12.210;2022-10-13T06:32:46;97772.16;;;17.55;100.00
74868;BME280;63419;42.262;12.210;2022-10-13T06:35:18;97774.88;;;17.24;100.00
74868;BME280;63419;42.262;12.210;2022-10-13T06:37:46;97769.69;;;16.93;100.00
74868;BME280;63419;42.262;12.210;2022-10-13T06:40:21;97766.09;;;17.44;100.00
74868;BME280;63419;42.262;12.210;2022-10-13T06:42:49;97767.91;;;17.73;100.00
74868;BME280;63419;42.262;12.210;2022-10-13T06:45:17;97763.94;;;18.08;100.00
74868;BME280;63419;42.262;12.210;2022-10-13T06:47:52;97765.28;;;17.73;100.00
74868;BME280;63419;42.262;12.210;2022-10-13T06:50:21;97770.53;;;18.12;100.00
74868;BME280;63419;42.262;12.210;2022-10-13T06:52:50;97769.69;;;18.21;100.00
74868;BME280;63419;42.262;12.210;2022-10-13T06:55:20;97767.53;;;17.97;100.00
74868;BME280;63419;42.262;12.210;2022-10-13T06:57:48;97771.88;;;17.48;100.00
74868;BME280;63419;42.262;12.210;2022-10-13T07:00:15;97772.69;;;17.68;100.00
74868;BME280;63419;42.262;12.210;2022-10-13T07:02:48;97766.81;;;17.76;100.00
74868;BME280;63419;42.262;12.210;2022-10-13T07:05:16;97767.88;;;18.41;100.00
74868;BME280;63419;42.262;12.210;2022-10-13T07:07:57;97772.13;;;18.90;100.00
74868;BME280;63419;42.262;12.210;2022-10-13T07:10:24;97778.19;;;18.33;100.00
74868;BME280;63419;42.262;12.210;2022-10-13T07:12:51;97776.03;;;18.19;100.00
74868;BME280;63419;42.262;12.210;2022-10-13T07:15:18;97776.81;;;18.39;100.00
74868;BME280;63419;42.262;12.210;2022-10-13T07:17:45;97780.94;;;17.73;100.00
74868;BME280;63419;42.262;12.210;2022-10-13T07:20:12;97786.09;;;18.04;100.00
74868;BME280;63419;42.262;12.210;2022-10-13T07:22:39;97775.16;;;18.38;100.00
74868;BME280;63419;42.262;12.210;2022-10-13T07:25:07;97775.13;;;18.48;100.00
74868;BME280;63419;42.262;12.210;2022-10-13T07:27:34;97769.81;;;18.87;100.00
74868;BME280;63419;42.262;12.210;2022-10-13T07:30:05;97772.03;;;18.72;100.00
74868;BME280;63419;42.262;12.210;2022-10-13T07:32:38;97771.19;;;18.81;100.00
74868;BME280;63419;42.262;12.210;2022-10-13T07:35:09;97783.81;;;18.29;100.00
74868;BME280;63419;42.262;12.210;2022-10-13T07:37:37;97781.63;;;18.34;100.00
74868;BME280;63419;42.262;12.210;2022-10-13T07:40:06;97780.09;;;18.41;100.00
74868;BME280;63419;42.262;12.210;2022-10-13T07:42:34;97776.78;;;18.49;100.00
74868;BME280;63419;42.262;12.210;2022-10-13T07:45:04;97779.00;;;18.34;100.00
74868;BME280;63419;42.262;12.210;2022-10-13T07:47:31;97780.00;;;18.33;100.00
74868;BME280;63419;42.262;12.210;2022-10-13T07:50:00;97777.75;;;18.48;100.00
74868;BME280;63419;42.262;12.210;2022-10-13T07:52:30;97772.09;;;18.52;100.00
74868;BME280;63419;42.262;12.210;2022-10-13T07:55:00;97774.13;;;18.68;100.00
74868;BME280;63419;42.262;12.210;2022-10-13T07:57:27;97763.00;;;18.56;100.00
74868;BME280;63419;42.262;12.210;2022-10-13T07:59:54;97769.94;;;18.28;100.00
74868;BME280;63419;42.262;12.210;2022-10-13T08:02:21;97770.94;;;18.17;100.00
74868;BME280;63419;42.262;12.210;2022-10-13T08:04:49;97769.19;;;17.88;100.00
74868;BME280;63419;42.262;12.210;2022-10-13T08:07:16;97769.69;;;18.02;100.00
74868;BME280;63419;42.262;12.210;2022-10-13T08:09:44;97762.44;;;17.86;100.00
74868;BME280;63419;42.262;12.210;2022-10-13T08:12:11;97760.91;;;18.03;100.00
74868;BME280;63419;42.262;12.210;2022-10-13T08:14:38;97758.84;;;17.67;100.00
74868;BME280;63419;42.262;12.210;2022-10-13T08:17:05;97763.53;;;18.03;100.00
74868;BME280;63419;42.262;12.210;2022-10-13T08:19:35;97761.56;;;18.24;100.00
74868;BME280;63419;42.262;12.210;2022-10-13T08:22:02;97761.41;;;18.73;100.00
74868;BME280;63419;42.262;12.210;2022-10-13T08:24:35;97766.66;;;18.83;100.00
74868;BME280;63419;42.262;12.210;2022-10-13T08:27:16;97768.84;;;17.62;100.00
74868;BME280;63419;42.262;12.210;2022-10-13T08:29:45;97765.13;;;18.33;100.00
74868;BME280;63419;42.262;12.210;2022-10-13T08:32:13;97755.59;;;18.52;100.00
74868;BME280;63419;42.262;12.210;2022-10-13T08:34:40;97760.09;;;17.93;100.00
74868;BME280;63419;42.262;12.210;2022-10-13T08:37:14;97764.34;;;17.74;100.00
74868;BME280;63419;42.262;12.210;2022-10-13T08:39:42;97759.81;;;18.05;100.00
74868;BME280;63419;42.262;12.210;2022-10-13T08:42:21;97762.03;;;17.91;100.00
74868;BME280;63419;42.262;12.210;2022-10-13T08:44:56;97766.81;;;17.66;100.00
74868;BME280;63419;42.262;12.210;2022-10-13T08:47:52;97761.31;;;18.18;100.00
74868;BME280;63419;42.262;12.210;2022-10-13T08:50:24;97760.50;;;17.78;100.00
74868;BME280;63419;42.262;12.210;2022-10-13T08:53:04;97766.41;;;18.10;100.00
74868;BME280;63419;42.262;12.210;2022-10-13T08:58:54;97755.72;;;18.50;100.00
74868;BME280;63419;42.262;12.210;2022-10-13T09:01:31;97756.53;;;18.13;100.00
74868;BME280;63419;42.262;12.210;2022-10-13T09:04:33;97752.56;;;18.46;100.00
74868;BME280;63419;42.262;12.210;2022-10-13T09:09:39;97742.22;;;18.64;100.00
74868;BME280;63419;42.262;12.210;2022-10-13T09:12:11;97744.00;;;18.64;100.00
74868;BME280;63419;42.262;12.210;2022-10-13T09:14:40;97743.78;;;18.48;100.00
74868;BME280;63419;42.262;12.210;2022-10-13T09:17:24;97740.03;;;18.97;100.00
74868;BME280;63419;42.262;12.210;2022-10-13T09:20:23;97741.09;;;19.05;100.00
74868;BME280;63419;42.262;12.210;2022-10-13T09:25:51;97732.19;;;19.61;100.00
74868;BME280;63419;42.262;12.210;2022-10-13T09:28:28;97722.97;;;19.57;100.00
74868;BME280;63419;42.262;12.210;2022-10-13T09:31:24;97722.16;;;19.74;100.00
74868;BME280;63419;42.262;12.210;2022-10-13T09:34:26;97714.19;;;20.54;100.00
74868;BME280;63419;42.262;12.210;2022-10-13T09:37:01;97710.19;;;20.42;100.00
74868;BME280;63419;42.262;12.210;2022-10-13T09:39:32;97716.41;;;21.18;100.00
74868;BME280;63419;42.262;12.210;2022-10-13T09:42:26;97706.94;;;21.25;100.00
74868;BME280;63419;42.262;12.210;2022-10-13T09:45:23;97705.75;;;21.11;100.00
74868;BME280;63419;42.262;12.210;2022-10-13T09:48:03;97696.78;;;22.04;100.00
74868;BME280;63419;42.262;12.210;2022-10-13T09:50:51;97688.38;;;22.25;100.00
74868;BME280;63419;42.262;12.210;2022-10-13T09:53:37;97692.75;;;22.58;100.00
74868;BME280;63419;42.262;12.210;2022-10-13T09:56:21;97681.47;;;22.80;100.00
74868;BME280;63419;42.262;12.210;2022-10-13T09:59:18;97679.41;;;23.07;100.00
74868;BME280;63419;42.262;12.210;2022-10-13T10:01:52;97670.91;;;23.89;100.00
74868;BME280;63419;42.262;12.210;2022-10-13T10:04:36;97666.56;;;23.35;100.00
74868;BME280;63419;42.262;12.210;2022-10-13T10:07:34;97663.91;;;23.12;100.00
74868;BME280;63419;42.262;12.210;2022-10-13T10:10:22;97667.09;;;23.69;100.00
74868;BME280;63419;42.262;12.210;2022-10-13T10:12:53;97656.91;;;23.89;100.00
74868;BME280;63419;42.262;12.210;2022-10-13T10:15:42;97669.16;;;23.12;100.00
74868;BME280;63419;42.262;12.210;2022-10-13T10:22:22;97669.19;;;22.17;100.00
74868;BME280;63419;42.262;12.210;2022-10-13T10:25:43;97673.31;;;22.67;100.00
74868;BME280;63419;42.262;12.210;2022-10-13T10:28:43;97666.72;;;23.11;100.00
74868;BME280;63419;42.262;12.210;2022-10-13T10:34:41;97674.38;;;22.50;100.00
74868;BME280;63419;42.262;12.210;2022-10-13T10:40:48;97662.00;;;23.90;100.00
74868;BME280;63419;42.262;12.210;2022-10-13T10:44:19;97652.84;;;23.40;100.00
74868;BME280;63419;42.262;12.210;2022-10-13T10:46:38;97662.16;;;23.28;100.00
74868;BME280;63419;42.262;12.210;2022-10-13T10:49:22;97653.09;;;23.07;100.00
74868;BME280;63419;42.262;12.210;2022-10-13T10:51:56;97642.75;;;23.67;100.00
74868;BME280;63419;42.262;12.210;2022-10-13T10:55:14;97640.41;;;23.72;100.00
74868;BME280;63419;42.262;12.210;2022-10-13T10:58:34;97635.97;;;23.49;100.00
74868;BME280;63419;42.262;12.210;2022-10-13T11:01:27;97639.16;;;22.90;100.00
74868;BME280;63419;42.262;12.210;2022-10-13T11:07:13;97625.53;;;23.18;100.00
74868;BME280;63419;42.262;12.210;2022-10-13T11:10:19;97633.59;;;22.54;100.00
74868;BME280;63419;42.262;12.210;2022-10-13T11:15:30;97628.44;;;24.88;100.00
74868;BME280;63419;42.262;12.210;2022-10-13T11:18:56;97617.97;;;23.38;100.00
74868;BME280;63419;42.262;12.210;2022-10-13T11:25:07;97608.03;;;25.19;100.00
74868;BME280;63419;42.262;12.210;2022-10-13T11:27:49;97585.25;;;26.86;100.00
74868;BME280;63419;42.262;12.210;2022-10-13T11:30:42;97592.72;;;25.86;100.00
74868;BME280;63419;42.262;12.210;2022-10-13T11:33:34;97599.63;;;25.58;100.00
74868;BME280;63419;42.262;12.210;2022-10-13T11:36:38;97595.53;;;24.69;100.00
74868;BME280;63419;42.262;12.210;2022-10-13T11:39:50;97594.03;;;24.01;100.00
74868;BME280;63419;42.262;12.210;2022-10-13T11:49:13;97580.59;;;24.10;100.00
74868;BME280;63419;42.262;12.210;2022-10-13T11:52:49;97575.84;;;24.87;100.00
74868;BME280;63419;42.262;12.210;2022-10-13T11:55:52;97574.44;;;25.34;100.00
74868;BME280;63419;42.262;12.210;2022-10-13T11:58:28;97556.97;;;25.61;100.00
74868;BME280;63419;42.262;12.210;2022-10-13T12:01:11;97563.13;;;26.45;100.00
74868;BME280;63419;42.262;12.210;2022-10-13T12:03:42;97556.34;;;28.56;100.00
74868;BME280;63419;42.262;12.210;2022-10-13T12:06:33;97561.75;;;28.23;100.00
74868;BME280;63419;42.262;12.210;2022-10-13T12:09:20;97567.16;;;25.36;100.00
74868;BME280;63419;42.262;12.210;2022-10-13T12:12:03;97568.66;;;25.02;100.00
74868;BME280;63419;42.262;12.210;2022-10-13T12:14:57;97568.66;;;24.29;100.00
74868;BME280;63419;42.262;12.210;2022-10-13T12:17:35;97567.00;;;24.43;100.00
74868;BME280;63419;42.262;12.210;2022-10-13T12:20:26;97563.41;;;24.14;100.00
74868;BME280;63419;42.262;12.210;2022-10-13T12:22:57;97561.50;;;23.93;100.00
74868;BME280;63419;42.262;12.210;2022-10-13T12:25:32;97559.59;;;24.17;100.00
74868;BME280;63419;42.262;12.210;2022-10-13T12:28:02;97559.94;;;23.99;100.00
74868;BME280;63419;42.262;12.210;2022-10-13T12:30:34;97562.69;;;23.91;100.00
74868;BME280;63419;42.262;12.210;2022-10-13T12:33:28;97546.88;;;24.21;100.00
74868;BME280;63419;42.262;12.210;2022-10-13T12:36:15;97551.88;;;24.01;100.00
74868;BME280;63419;42.262;12.210;2022-10-13T12:39:11;97549.28;;;25.17;100.00
74868;BME280;63419;42.262;12.210;2022-10-13T12:41:47;97552.41;;;24.11;100.00
74868;BME280;63419;42.262;12.210;2022-10-13T12:44:27;97556.22;;;24.23;100.00
74868;BME280;63419;42.262;12.210;2022-10-13T12:47:00;97551.88;;;24.16;100.00
74868;BME280;63419;42.262;12.210;2022-10-13T12:49:34;97542.28;;;23.40;100.00
74868;BME280;63419;42.262;12.210;2022-10-13T12:52:13;97540.91;;;23.82;100.00
74868;BME280;63419;42.262;12.210;2022-10-13T12:54:55;97550.59;;;23.97;100.00
74868;BME280;63419;42.262;12.210;2022-10-13T12:57:36;97542.06;;;24.09;100.00
74868;BME280;63419;42.262;12.210;2022-10-13T13:03:01;97547.38;;;24.31;100.00
74868;BME280;63419;42.262;12.210;2022-10-13T13:05:40;97546.41;;;24.68;100.00
74868;BME280;63419;42.262;12.210;2022-10-13T13:08:31;97535.47;;;25.36;100.00
74868;BME280;63419;42.262;12.210;2022-10-13T13:11:22;97530.34;;;26.39;100.00
74868;BME280;63419;42.262;12.210;2022-10-13T13:14:33;97516.66;;;26.91;100.00
74868;BME280;63419;42.262;12.210;2022-10-13T13:17:07;97513.97;;;26.71;100.00
74868;BME280;63419;42.262;12.210;2022-10-13T13:19:51;97513.41;;;27.49;100.00
74868;BME280;63419;42.262;12.210;2022-10-13T13:22:19;97507.72;;;28.17;100.00
74868;BME280;63419;42.262;12.210;2022-10-13T13:24:49;97488.94;;;30.62;100.00
74868;BME280;63419;42.262;12.210;2022-10-13T13:27:33;97479.97;;;32.79;100.00
74868;BME280;63419;42.262;12.210;2022-10-13T13:30:12;97469.31;;;32.96;100.00
74868;BME280;63419;42.262;12.210;2022-10-13T13:32:40;97477.09;;;35.02;100.00
74868;BME280;63419;42.262;12.210;2022-10-13T13:35:08;97482.38;;;33.49;100.00
74868;BME280;63419;42.262;12.210;2022-10-13T13:37:44;97475.03;;;33.78;100.00
74868;BME280;63419;42.262;12.210;2022-10-13T13:40:23;97473.16;;;32.89;100.00
74868;BME280;63419;42.262;12.210;2022-10-13T13:42:54;97485.38;;;30.68;100.00
74868;BME280;63419;42.262;12.210;2022-10-13T13:45:23;97475.97;;;32.19;100.00
74868;BME280;63419;42.262;12.210;2022-10-13T13:48:10;97481.13;;;30.00;100.00
74868;BME280;63419;42.262;12.210;2022-10-13T13:50:41;97472.69;;;29.91;100.00
74868;BME280;63419;42.262;12.210;2022-10-13T13:53:09;97468.28;;;30.34;100.00
74868;BME280;63419;42.262;12.210;2022-10-13T13:55:37;97472.47;;;30.42;100.00
74868;BME280;63419;42.262;12.210;2022-10-13T13:58:04;97462.97;;;32.40;100.00
74868;BME280;63419;42.262;12.210;2022-10-13T14:00:32;97466.47;;;31.36;100.00
74868;BME280;63419;42.262;12.210;2022-10-13T14:03:04;97480.31;;;28.69;100.00
74868;BME280;63419;42.262;12.210;2022-10-13T14:05:31;97469.75;;;29.12;100.00
74868;BME280;63419;42.262;12.210;2022-10-13T14:07:59;97475.94;;;29.06;100.00
74868;BME280;63419;42.262;12.210;2022-10-13T14:10:31;97481.22;;;26.92;100.00
74868;BME280;63419;42.262;12.210;2022-10-13T14:12:59;97470.44;;;28.82;100.00
74868;BME280;63419;42.262;12.210;2022-10-13T14:15:35;97477.00;;;28.73;100.00
74868;BME280;63419;42.262;12.210;2022-10-13T14:18:07;97465.75;;;29.28;100.00
74868;BME280;63419;42.262;12.210;2022-10-13T14:20:39;97473.38;;;28.67;100.00
74868;BME280;63419;42.262;12.210;2022-10-13T14:23:08;97473.63;;;29.78;100.00
74868;BME280;63419;42.262;12.210;2022-10-13T14:25:41;97469.66;;;30.79;100.00
74868;BME280;63419;42.262;12.210;2022-10-13T14:28:11;97466.13;;;31.32;100.00